Time;durP1;ratioP1;P1;durP2;ratioP2;P2;SDS_P1;SDS_P2;PMS_P1;PMS_P2;Temp;Humidity;BMP_temperature;BMP_pressure;BME280_temperature;BME280_humidity;BME280_pressure;Samples;Min_cycle;Max_cycle;Signal;HPM_P1;HPM_P2
2022/04/29 00:02:21;;;;;;;6.23;5.30;;;;;;;14.56;82.73;97540.50;4887660;29;20772;-86
2022/04/29 00:04:51;;;;;;;8.93;5.40;;;;;;;14.39;83.66;97532.72;4839390;29;20620;-86
2022/04/29 00:07:18;;;;;;;8.20;6.10;;;;;;;13.88;83.50;97439.91;4872345;29;20266;-86
2022/04/29 00:09:47;;;;;;;8.60;6.70;;;;;;;14.19;83.80;97512.06;4873135;29;20207;-86
2022/04/29 00:12:19;;;;;;;10.60;6.50;;;;;;;14.00;84.24;97474.03;4872520;29;20223;-86
2022/04/29 00:14:47;;;;;;;11.40;8.13;;;;;;;14.32;83.77;97515.72;4875834;29;20210;-86
2022/04/29 00:17:17;;;;;;;8.67;7.33;;;;;;;14.07;83.51;97478.84;4855810;29;20204;-86
2022/04/29 00:19:48;;;;;;;7.87;6.87;;;;;;;13.82;83.03;97410.75;4841054;29;20239;-86
2022/04/29 00:22:32;;;;;;;8.63;6.37;;;;;;;14.04;84.27;97498.97;4842840;29;20206;-87
2022/04/29 00:25:03;;;;;;;7.80;5.83;;;;;;;13.87;84.55;97502.47;4875915;29;20207;-87
2022/04/29 00:27:36;;;;;;;11.70;6.30;;;;;;;13.99;84.88;97507.06;4875065;29;20644;-87
2022/04/29 00:30:10;;;;;;;11.10;7.97;;;;;;;14.06;84.82;97503.19;4875195;29;20214;-87
2022/04/29 00:32:39;;;;;;;8.90;5.90;;;;;;;14.12;84.18;97512.44;4875576;29;20217;-86
2022/04/29 00:35:08;;;;;;;10.23;6.37;;;;;;;14.23;83.84;97510.13;4859696;29;20206;-86
2022/04/29 00:37:51;;;;;;;6.03;5.03;;;;;;;14.32;83.48;97510.50;4883900;29;20211;-86
2022/04/29 00:40:28;;;;;;;8.47;5.87;;;;;;;14.06;83.12;97447.66;4868210;29;20202;-86
2022/04/29 00:42:58;;;;;;;8.30;6.63;;;;;;;14.57;83.28;97515.25;4889451;29;20239;-89
2022/04/29 00:45:27;;;;;;;9.23;6.47;;;;;;;14.60;82.67;97526.38;4886246;29;20204;-91
2022/04/29 00:47:54;;;;;;;9.60;6.57;;;;;;;14.58;82.92;97538.66;4894347;29;20712;-87
2022/04/29 00:50:25;;;;;;;14.17;6.87;;;;;;;14.57;83.05;97536.09;4885151;29;20200;-92
2022/04/29 00:52:56;;;;;;;8.93;5.97;;;;;;;14.55;82.01;97541.41;4893284;29;20231;-86
2022/04/29 00:55:24;;;;;;;7.40;5.60;;;;;;;14.41;82.04;97512.63;4899737;29;20207;-89
2022/04/29 00:58:08;;;;;;;7.07;5.70;;;;;;;14.49;82.20;97527.84;4868447;29;20234;-88
2022/04/29 01:00:38;;;;;;;9.40;6.50;;;;;;;14.19;83.36;97499.03;4877055;29;20208;-87
2022/04/29 01:03:14;;;;;;;10.57;6.03;;;;;;;13.78;84.02;97510.75;4832115;29;20274;-86
2022/04/29 01:05:42;;;;;;;7.37;5.73;;;;;;;13.75;84.24;97503.09;4875685;29;20243;-87
2022/04/29 01:08:11;;;;;;;10.07;6.33;;;;;;;13.83;84.55;97512.19;4878288;29;20720;-88
2022/04/29 01:10:39;;;;;;;8.67;6.17;;;;;;;13.67;84.15;97481.81;4860606;29;20207;-87
2022/04/29 01:13:09;;;;;;;9.40;6.77;;;;;;;13.70;85.26;97503.31;4878988;29;20298;-87
2022/04/29 01:15:37;;;;;;;8.50;6.63;;;;;;;13.48;85.84;97483.66;4876176;29;20214;-86
2022/04/29 01:18:11;;;;;;;8.70;6.20;;;;;;;13.70;85.59;97507.72;4876567;29;20303;-87
2022/04/29 01:20:44;;;;;;;8.83;6.30;;;;;;;13.87;85.26;97502.47;4877152;29;20201;-86
2022/04/29 01:23:14;;;;;;;9.20;7.30;;;;;;;13.73;85.26;97495.38;4879580;29;20283;-86
2022/04/29 01:25:42;;;;;;;8.90;7.10;;;;;;;13.82;85.57;97489.69;4877714;29;20676;-87
2022/04/29 01:28:09;;;;;;;10.07;6.10;;;;;;;13.67;85.82;97467.06;4860984;29;20234;-87
2022/04/29 01:30:42;;;;;;;10.17;6.27;;;;;;;13.90;85.88;97489.31;4876610;29;20208;-88
2022/04/29 01:33:11;;;;;;;8.87;6.67;;;;;;;13.93;84.79;97475.28;4845287;29;20211;-87
2022/04/29 01:35:39;;;;;;;8.60;6.67;;;;;;;14.08;83.64;97482.28;4879134;29;20207;-87
2022/04/29 01:38:06;;;;;;;9.23;6.67;;;;;;;13.65;85.32;97455.03;4875935;29;20210;-87
2022/04/29 01:40:34;;;;;;;10.77;8.07;;;;;;;13.67;86.31;97485.28;4861354;29;20207;-85
2022/04/29 01:43:08;;;;;;;10.63;7.07;;;;;;;13.65;85.76;97478.47;4878595;29;20221;-87
2022/04/29 01:45:44;;;;;;;10.13;7.50;;;;;;;13.44;84.53;97449.16;4877108;29;20195;-86
2022/04/29 01:48:26;;;;;;;13.10;7.97;;;;;;;13.74;84.33;97467.59;4861131;29;20240;-87
2022/04/29 01:51:11;;;;;;;9.53;6.40;;;;;;;13.99;83.34;97465.41;4874603;29;20698;-87
2022/04/29 01:53:40;;;;;;;8.77;6.63;;;;;;;14.27;81.68;97476.03;4873331;29;20805;-87
2022/04/29 01:56:12;;;;;;;7.83;5.93;;;;;;;14.09;81.18;97429.28;4872844;29;20597;-87
2022/04/29 01:58:39;;;;;;;10.10;6.13;;;;;;;14.42;80.41;97477.00;4875572;29;20291;-87
2022/04/29 02:01:09;;;;;;;7.40;6.20;;;;;;;14.36;80.19;97472.13;4873888;29;20204;-87
2022/04/29 02:03:37;;;;;;;8.17;6.60;;;;;;;14.52;80.68;97475.59;4874313;29;20204;-87
2022/04/29 02:06:07;;;;;;;8.87;6.57;;;;;;;14.52;81.15;97484.25;4890305;29;20784;-86
2022/04/29 02:08:40;;;;;;;9.90;6.93;;;;;;;14.48;80.50;97485.34;4860197;29;20835;-87
2022/04/29 02:11:11;;;;;;;8.97;6.70;;;;;;;14.40;80.45;97471.03;4878139;29;20707;-84
2022/04/29 02:13:40;;;;;;;8.13;6.97;;;;;;;14.39;80.53;97464.13;4874556;29;20604;-87
2022/04/29 02:16:23;;;;;;;12.97;6.90;;;;;;;14.40;80.30;97460.63;4859031;29;20645;-87
2022/04/29 02:18:52;;;;;;;7.50;5.57;;;;;;;14.68;79.62;97500.72;4843890;29;20203;-85
2022/04/29 02:21:21;;;;;;;10.87;6.93;;;;;;;14.65;79.14;97503.50;4861592;29;20234;-85
2022/04/29 02:23:49;;;;;;;9.47;6.03;;;;;;;14.61;79.92;97506.38;4878280;29;20232;-86
2022/04/29 02:26:16;;;;;;;7.60;5.57;;;;;;;14.65;79.45;97502.66;4844000;29;20200;-86
2022/04/29 02:28:44;;;;;;;8.37;6.20;;;;;;;14.66;79.30;97502.59;4862540;29;20794;-85
2022/04/29 02:31:16;;;;;;;9.20;6.07;;;;;;;14.29;80.86;97453.38;4844669;29;20268;-86
2022/04/29 02:33:44;;;;;;;6.73;5.63;;;;;;;14.32;80.55;97461.00;4882749;29;20221;-86
2022/04/29 02:36:16;;;;;;;10.30;6.70;;;;;;;14.37;81.68;97511.13;4873988;29;20200;-86
2022/04/29 02:38:45;;;;;;;9.57;6.47;;;;;;;14.43;81.50;97489.94;4843735;29;20586;-86
2022/04/29 02:41:13;;;;;;;8.30;6.30;;;;;;;14.50;80.69;97506.94;4845108;29;20204;-87
2022/04/29 02:43:43;;;;;;;10.60;7.50;;;;;;;14.09;79.52;97461.38;4865984;29;20295;-86
2022/04/29 02:46:12;;;;;;;11.43;7.67;;;;;;;13.46;81.21;97397.88;4874739;29;20617;-86
2022/04/29 02:48:43;;;;;;;11.33;8.10;;;;;;;13.81;80.33;97474.13;4859121;29;20231;-85
2022/04/29 02:51:11;;;;;;;12.77;8.20;;;;;;;14.04;79.97;97498.97;4856363;29;20213;-84
2022/04/29 02:53:39;;;;;;;13.00;9.40;;;;;;;13.98;80.26;97489.75;4879959;29;20189;-83
2022/04/29 02:56:06;;;;;;;13.27;9.10;;;;;;;13.82;78.43;97458.47;4857796;29;20701;-87
2022/04/29 02:58:52;;;;;;;14.23;8.73;;;;;;;14.11;77.85;97496.00;4894614;29;20219;-83
2022/04/29 03:01:21;;;;;;;13.17;9.13;;;;;;;13.40;77.51;97397.34;4894061;29;20223;-86
2022/04/29 03:03:49;;;;;;;12.40;9.00;;;;;;;13.73;77.29;97468.50;4906292;29;20210;-85
2022/04/29 03:06:16;;;;;;;11.27;8.73;;;;;;;13.64;78.27;97471.59;4878158;29;20235;-86
2022/04/29 03:08:44;;;;;;;12.17;8.70;;;;;;;13.54;80.54;97475.56;4876047;29;20239;-84
2022/04/29 03:11:13;;;;;;;13.90;9.13;;;;;;;13.54;80.25;97489.41;4898433;29;20282;-84
2022/04/29 03:13:40;;;;;;;14.80;10.23;;;;;;;13.62;80.33;97497.66;4886388;29;20215;-86
2022/04/29 03:16:14;;;;;;;13.00;9.33;;;;;;;13.70;81.87;97497.28;4892686;29;20739;-86
2022/04/29 03:18:44;;;;;;;13.87;9.13;;;;;;;13.64;82.16;97469.78;4876124;29;20207;-87
2022/04/29 03:21:18;;;;;;;19.27;9.60;;;;;;;13.75;81.63;97467.50;4881288;29;20279;-87
2022/04/29 03:23:47;;;;;;;10.90;8.07;;;;;;;13.85;81.90;97483.47;4861534;29;20227;-86
2022/04/29 03:26:16;;;;;;;14.27;9.30;;;;;;;13.95;81.26;97481.25;4886468;29;20971;-85
2022/04/29 03:28:46;;;;;;;14.47;8.57;;;;;;;13.95;81.12;97492.50;4886926;29;20226;-91
2022/04/29 03:31:14;;;;;;;16.93;9.50;;;;;;;13.89;81.21;97474.59;4871868;29;20211;-89
2022/04/29 03:34:21;;;;;;;15.17;10.20;;;;;;;14.11;80.81;97511.63;4835926;29;20215;-86
2022/04/29 03:36:50;;;;;;;11.80;9.07;;;;;;;14.22;80.58;97530.13;4838222;29;20206;-87
2022/04/29 03:39:18;;;;;;;14.23;9.07;;;;;;;14.08;81.21;97514.38;4823976;29;20208;-85
2022/04/29 03:41:48;;;;;;;14.87;9.37;;;;;;;14.00;80.90;97506.13;4823399;29;20282;-86
2022/04/29 03:44:16;;;;;;;15.07;10.07;;;;;;;14.18;80.67;97523.38;4878059;29;20274;-84
2022/04/29 03:46:45;;;;;;;13.20;9.20;;;;;;;14.10;80.42;97489.09;4896154;29;20227;-86
2022/04/29 03:52:18;;;;;;;19.57;9.63;;;;;;;14.31;76.11;97508.84;4869846;29;20223;-84
2022/04/29 03:54:59;;;;;;;21.10;11.03;;;;;;;14.50;76.16;97527.78;4880972;29;20271;-90
2022/04/29 03:57:27;;;;;;;18.10;10.47;;;;;;;14.29;76.75;97482.03;4881578;29;20675;-86
2022/04/29 04:02:59;;;;;;;17.13;11.83;;;;;;;14.13;78.78;97491.56;4959699;23;20245;-91
2022/04/29 04:05:28;;;;;;;15.10;10.80;;;;;;;14.26;80.10;97510.81;4789538;29;20220;-91
2022/04/29 04:07:57;;;;;;;18.53;10.47;;;;;;;13.52;81.18;97443.56;4790323;29;20334;-93
2022/04/29 04:10:45;;;;;;;21.50;11.27;;;;;;;13.82;80.03;97428.97;4793967;29;20201;-92
2022/04/29 04:13:16;;;;;;;15.37;9.70;;;;;;;14.44;78.83;97472.56;4805301;29;20206;-94
2022/04/29 04:15:57;;;;;;;15.03;10.40;;;;;;;14.69;78.86;97530.25;4793629;29;20204;-91
2022/04/29 04:18:25;;;;;;;13.93;9.97;;;;;;;14.74;76.53;97476.06;4805712;29;20203;-91
2022/04/29 04:20:52;;;;;;;16.13;10.30;;;;;;;14.81;76.07;97481.81;4808771;29;20736;-90
2022/04/29 04:23:19;;;;;;;15.90;10.10;;;;;;;15.56;74.29;97549.75;4805398;29;20209;-92
2022/04/29 04:25:46;;;;;;;15.03;9.70;;;;;;;15.84;73.87;97555.03;4819932;29;20210;-91
2022/04/29 04:28:16;;;;;;;13.63;9.33;;;;;;;15.87;72.45;97497.38;4791572;29;20230;-92
2022/04/29 04:30:52;;;;;;;15.40;9.67;;;;;;;16.28;71.14;97511.41;4819639;29;20201;-91
2022/04/29 04:33:24;;;;;;;14.27;9.67;;;;;;;16.64;70.45;97548.41;4805963;29;20759;-91
2022/04/29 04:35:51;;;;;;;14.77;10.07;;;;;;;16.05;70.60;97481.44;4819768;29;20266;-92
2022/04/29 04:38:19;;;;;;;14.93;10.57;;;;;;;16.55;69.85;97548.16;4820396;29;20289;-91
2022/04/29 04:40:50;;;;;;;14.50;10.43;;;;;;;16.77;69.12;97562.44;4806303;29;20236;-91
2022/04/29 04:43:20;;;;;;;18.10;11.07;;;;;;;16.21;70.48;97523.19;4804076;29;20216;-92
2022/04/29 04:45:50;;;;;;;20.30;11.47;;;;;;;16.74;69.88;97553.91;4790916;29;20198;-92
2022/04/29 04:48:36;;;;;;;21.73;14.20;;;;;;;16.09;70.85;97464.66;4806632;29;20241;-92
2022/04/29 04:51:22;;;;;;;26.17;14.23;;;;;;;16.40;70.87;97555.13;4833552;29;20187;-92
2022/04/29 04:54:03;;;;;;;22.10;13.83;;;;;;;16.14;71.87;97525.31;4779202;29;20203;-94
2022/04/29 04:56:31;;;;;;;19.10;12.37;;;;;;;16.53;69.93;97557.84;4804765;29;20594;-92
2022/04/29 04:59:00;;;;;;;29.13;14.67;;;;;;;16.76;68.50;97513.66;4775772;29;20204;-92
2022/04/29 05:01:29;;;;;;;24.90;13.43;;;;;;;17.23;68.62;97552.50;4788792;29;20271;-92
2022/04/29 05:04:17;;;;;;;20.20;14.00;;;;;;;16.86;68.23;97511.28;4820137;29;20961;-92
2022/04/29 05:07:10;;;;;;;28.07;14.77;;;;;;;17.07;68.12;97518.63;4795291;29;20211;-92
2022/04/29 05:09:37;;;;;;;26.40;14.63;;;;;;;17.13;68.03;97551.41;4798860;29;20237;-93
2022/04/29 05:12:06;;;;;;;16.63;12.20;;;;;;;17.18;68.17;97554.59;4822170;29;20210;-93
2022/04/29 05:14:57;;;;;;;18.30;12.67;;;;;;;16.66;69.28;97519.53;4814616;29;20207;-92
2022/04/29 05:17:26;;;;;;;19.87;12.90;;;;;;;15.93;70.14;97435.16;4794410;29;20239;-92
2022/04/29 05:20:13;;;;;;;25.30;13.73;;;;;;;16.12;70.99;97514.13;4836598;29;20202;-90
2022/04/29 05:22:47;;;;;;;19.90;11.60;;;;;;;16.41;70.27;97553.31;4821944;29;20282;-91
2022/04/29 05:25:16;;;;;;;17.47;10.83;;;;;;;16.53;69.60;97529.06;4809132;29;20275;-91
2022/04/29 05:27:49;;;;;;;21.80;11.57;;;;;;;16.61;67.17;97504.13;4808671;29;20674;-92
2022/04/29 05:30:49;;;;;;;14.63;11.10;;;;;;;16.71;65.98;97491.34;4792957;29;20204;-91
2022/04/29 05:33:38;;;;;;;15.73;10.57;;;;;;;16.31;65.68;97482.47;4784390;29;20218;-91
2022/04/29 05:36:24;;;;;;;15.23;11.93;;;;;;;16.62;65.72;97520.69;4824409;29;20299;-91
2022/04/29 05:42:18;;;;;;;14.87;10.80;;;;;;;17.14;63.29;97583.66;4808302;29;20895;-91
2022/04/29 05:44:46;;;;;;;17.47;10.97;;;;;;;17.14;64.09;97575.81;4823276;29;20199;-91
2022/04/29 05:47:17;;;;;;;17.53;11.97;;;;;;;17.52;62.13;97577.69;4809967;29;20206;-92
2022/04/29 05:49:47;;;;;;;25.93;12.27;;;;;;;17.54;61.18;97541.75;4807889;29;20844;-92
2022/04/29 05:52:17;;;;;;;19.50;10.97;;;;;;;17.68;60.58;97548.72;4793226;29;20272;-92
2022/04/29 05:54:49;;;;;;;19.03;13.90;;;;;;;17.42;60.42;97500.63;4825193;29;20348;-92
2022/04/29 05:57:24;;;;;;;13.17;9.90;;;;;;;17.13;59.15;97527.00;4795008;29;20299;-92
2022/04/29 05:59:52;;;;;;;13.83;9.67;;;;;;;17.04;60.99;97578.19;4794367;29;20235;-93
2022/04/29 06:02:54;;;;;;;14.27;10.93;;;;;;;17.28;61.33;97588.84;4834817;29;20246;-93
2022/04/29 06:05:25;;;;;;;15.03;10.10;;;;;;;17.21;60.92;97562.22;4806671;29;20223;-91
2022/04/29 06:07:55;;;;;;;28.23;18.37;;;;;;;17.07;61.46;97580.59;4819418;29;20238;-93
2022/04/29 06:10:39;;;;;;;18.47;12.47;;;;;;;17.06;61.30;97537.03;4811429;29;20235;-92
2022/04/29 06:13:08;;;;;;;18.77;12.23;;;;;;;17.07;59.87;97502.06;4818622;29;20314;-93
2022/04/29 06:15:56;;;;;;;16.90;11.83;;;;;;;18.03;59.44;97601.41;4830376;29;20608;-93
2022/04/29 06:18:44;;;;;;;25.37;14.57;;;;;;;17.39;59.53;97482.53;4809299;29;20644;-93
2022/04/29 06:21:40;;;;;;;15.03;11.03;;;;;;;18.10;58.97;97553.72;4837480;29;20213;-92
2022/04/29 06:24:18;;;;;;;15.87;10.10;;;;;;;18.50;58.10;97580.72;4835581;29;20224;-94
2022/04/29 06:26:47;;;;;;;15.90;10.10;;;;;;;18.48;56.97;97533.63;4822612;29;20268;-93
2022/04/29 06:29:15;;;;;;;16.07;10.13;;;;;;;18.60;56.55;97572.13;4807000;29;20237;-93
2022/04/29 06:31:44;;;;;;;15.73;10.93;;;;;;;18.60;56.47;97558.16;4804125;29;20205;-93
2022/04/29 06:34:50;;;;;;;24.47;12.83;;;;;;;18.19;57.04;97508.53;4775386;30;20241;-93
2022/04/29 06:37:20;;;;;;;17.83;11.40;;;;;;;18.66;56.87;97569.06;4763218;30;20773;-93
2022/04/29 06:40:08;;;;;;;20.53;11.00;;;;;;;18.80;56.39;97544.47;4768671;30;20212;-93
2022/04/29 06:42:45;;;;;;;23.67;12.60;;;;;;;19.15;55.87;97590.06;4766579;29;20263;-93
2022/04/29 06:45:33;;;;;;;16.57;10.53;;;;;;;19.65;53.82;97593.47;4784452;29;20213;-92
2022/04/29 06:48:40;;;;;;;16.17;10.37;;;;;;;19.50;53.94;97577.03;4827975;29;20237;-92
2022/04/29 06:51:11;;;;;;;14.03;9.30;;;;;;;19.51;53.63;97598.91;4831091;29;20202;-93
2022/04/29 06:53:53;;;;;;;11.87;9.17;;;;;;;19.59;53.53;97583.41;4800213;29;20305;-93
2022/04/29 06:56:34;;;;;;;16.93;8.97;;;;;;;19.53;52.35;97568.94;4812904;29;20221;-93
2022/04/29 06:59:03;;;;;;;15.87;9.17;;;;;;;19.61;52.27;97592.03;4794136;29;20764;-93
2022/04/29 07:01:34;;;;;;;11.23;9.17;;;;;;;19.72;51.92;97566.63;4795036;29;20336;-93
2022/04/29 07:04:06;;;;;;;18.87;9.63;;;;;;;19.85;51.52;97554.25;4824771;29;20296;-92
2022/04/29 07:06:35;;;;;;;15.87;9.70;;;;;;;19.75;51.14;97516.47;4810187;29;20207;-93
2022/04/29 07:09:04;;;;;;;17.30;9.47;;;;;;;20.23;51.56;97604.03;4795933;29;20882;-91
2022/04/29 07:11:45;;;;;;;12.30;9.40;;;;;;;20.01;51.42;97559.22;4797863;29;20206;-93
2022/04/29 07:14:32;;;;;;;12.60;9.20;;;;;;;19.82;51.31;97600.97;4798490;29;20237;-92
2022/04/29 07:17:12;;;;;;;14.27;8.90;;;;;;;19.84;51.34;97557.00;4799219;29;20535;-94
2022/04/29 07:19:52;;;;;;;17.67;10.77;;;;;;;19.92;51.42;97576.53;4798894;29;20658;-93
2022/04/29 07:22:30;;;;;;;14.90;10.67;;;;;;;19.92;51.58;97592.31;4815352;29;20235;-93
2022/04/29 07:24:59;;;;;;;17.87;10.00;;;;;;;19.49;51.10;97494.75;4823643;29;20218;-93
2022/04/29 07:27:29;;;;;;;11.13;8.73;;;;;;;19.77;50.96;97519.81;4810436;29;20342;-92
2022/04/29 07:29:59;;;;;;;16.63;11.70;;;;;;;20.38;50.46;97600.22;4825123;29;20234;-92
2022/04/29 07:32:38;;;;;;;12.47;9.03;;;;;;;19.82;51.19;97543.16;4780475;29;20242;-91
2022/04/29 07:44:07;;;;;;;11.83;8.07;;;;;;;18.19;55.15;97529.50;4807495;29;20216;-93
2022/04/29 07:46:43;;;;;;;10.87;8.47;;;;;;;18.44;55.56;97576.72;4791806;29;20213;-94
2022/04/29 07:49:31;;;;;;;10.67;8.50;;;;;;;17.44;56.72;97496.13;4812205;29;20245;-93
2022/04/29 07:51:58;;;;;;;14.10;9.27;;;;;;;17.78;57.33;97573.38;4807247;29;20207;-93
2022/04/29 07:54:25;;;;;;;10.30;8.10;;;;;;;17.17;58.60;97507.53;4790831;29;20356;-93
2022/04/29 07:56:53;;;;;;;9.93;8.00;;;;;;;17.39;58.17;97545.34;4807797;29;20215;-93
2022/04/29 07:59:23;;;;;;;11.37;8.40;;;;;;;17.15;58.26;97539.06;4809930;29;20207;-92
2022/04/29 08:02:06;;;;;;;16.87;8.97;;;;;;;17.56;58.14;97594.88;4825991;29;20292;-93
2022/04/29 08:04:34;;;;;;;11.57;8.57;;;;;;;17.68;58.43;97601.94;4794360;29;20587;-93
2022/04/29 08:07:02;;;;;;;12.43;8.70;;;;;;;17.94;57.13;97575.81;4808367;29;20205;-93
2022/04/29 08:09:32;;;;;;;10.97;8.13;;;;;;;18.33;56.42;97594.09;4808673;29;20236;-92
2022/04/29 08:12:07;;;;;;;10.33;8.70;;;;;;;18.47;55.41;97567.81;4806639;29;20267;-92
2022/04/29 08:14:55;;;;;;;11.63;8.57;;;;;;;18.15;56.38;97587.47;4811360;29;20237;-93
2022/04/29 08:17:41;;;;;;;14.97;9.67;;;;;;;17.52;57.72;97564.59;4809232;29;20302;-92
2022/04/29 08:20:21;;;;;;;11.10;8.37;;;;;;;17.78;57.43;97582.03;4796226;29;20298;-93
2022/04/29 08:22:52;;;;;;;9.80;7.83;;;;;;;17.46;57.18;97498.63;4809523;29;20629;-92
2022/04/29 08:25:19;;;;;;;14.27;8.80;;;;;;;17.90;56.27;97548.97;4809261;29;20204;-93
2022/04/29 08:27:50;;;;;;;10.80;8.60;;;;;;;18.02;56.58;97574.34;4796541;29;20205;-94
2022/04/29 08:30:20;;;;;;;13.33;8.83;;;;;;;18.33;56.83;97588.84;4823621;29;20327;-93
2022/04/29 08:32:50;;;;;;;13.83;9.70;;;;;;;18.41;55.47;97534.09;4810496;29;20219;-93
2022/04/29 08:35:32;;;;;;;13.53;9.97;;;;;;;18.50;54.97;97517.75;4811542;29;20209;-93
2022/04/29 08:38:00;;;;;;;15.00;10.27;;;;;;;19.15;54.41;97576.09;4808041;29;20228;-92
2022/04/29 08:40:44;;;;;;;16.00;10.03;;;;;;;19.43;53.62;97575.84;4797117;29;20224;-93
2022/04/29 08:43:14;;;;;;;11.63;8.93;;;;;;;19.60;53.12;97577.22;4794735;29;20212;-93
2022/04/29 08:45:44;;;;;;;13.23;8.63;;;;;;;19.28;52.39;97514.72;4829023;29;20204;-93
2022/04/29 08:48:51;;;;;;;11.37;8.63;;;;;;;19.16;52.26;97478.00;4790817;29;20220;-93
2022/04/29 08:51:20;;;;;;;15.17;9.57;;;;;;;19.08;54.33;97552.06;4813199;29;20268;-92
2022/04/29 08:53:48;;;;;;;14.17;9.87;;;;;;;19.40;53.87;97569.00;4815249;29;20659;-92
2022/04/29 08:59:05;;;;;;;15.27;8.37;;;;;;;18.90;54.13;97490.38;4816051;29;20190;-93
2022/04/29 09:01:33;;;;;;;11.87;8.87;;;;;;;19.56;53.27;97563.47;4828815;29;20241;-93
2022/04/29 09:04:02;;;;;;;14.23;9.27;;;;;;;19.65;52.73;97533.88;4798806;29;20231;-92
2022/04/29 09:06:31;;;;;;;11.40;8.37;;;;;;;19.30;51.72;97451.56;4815871;29;20221;-93
2022/04/29 09:09:09;;;;;;;9.07;7.70;;;;;;;19.48;52.00;97514.13;4833053;29;20218;-92
2022/04/29 09:11:37;;;;;;;10.93;8.17;;;;;;;19.27;53.21;97552.41;4825655;29;20269;-92
2022/04/29 09:14:23;;;;;;;12.00;8.37;;;;;;;19.16;53.74;97534.00;4841161;29;20197;-94
2022/04/29 09:16:51;;;;;;;10.23;8.33;;;;;;;19.21;52.90;97563.38;4826564;29;20201;-93
2022/04/29 09:19:34;;;;;;;25.07;13.30;;;;;;;18.83;54.08;97514.56;4841346;29;20237;-93
2022/04/29 09:22:04;;;;;;;8.87;7.93;;;;;;;19.15;52.81;97560.31;4811380;29;20292;-92
2022/04/29 09:24:43;;;;;;;10.57;8.17;;;;;;;19.08;53.17;97546.78;4826622;29;20205;-93
2022/04/29 09:28:01;;;;;;;9.53;7.73;;;;;;;18.66;54.67;97557.72;4830649;29;20238;-92
2022/04/29 09:30:48;;;;;;;9.87;7.77;;;;;;;18.80;54.43;97556.75;4813198;29;20237;-92
2022/04/29 09:33:35;;;;;;;11.50;8.73;;;;;;;18.74;54.63;97552.78;4842653;29;20205;-92
2022/04/29 09:36:24;;;;;;;13.87;9.23;;;;;;;18.64;54.50;97541.25;4830748;29;20700;-93
2022/04/29 09:41:57;;;;;;;10.90;8.43;;;;;;;18.74;54.12;97509.94;4826575;29;20210;-94
2022/04/29 09:44:30;;;;;;;15.93;9.73;;;;;;;18.62;55.02;97543.97;4795222;29;20228;-93
2022/04/29 09:47:11;;;;;;;11.33;7.60;;;;;;;18.15;54.04;97459.88;4811422;29;20204;-93
2022/04/29 09:49:54;;;;;;;12.53;8.60;;;;;;;18.28;54.95;97505.25;4811062;29;20730;-93
2022/04/29 09:52:23;;;;;;;10.83;8.43;;;;;;;17.96;55.26;97459.44;4795214;29;20265;-92
2022/04/29 09:54:51;;;;;;;12.40;8.43;;;;;;;18.44;55.71;97541.81;4796542;29;20204;-92
2022/04/29 09:57:23;;;;;;;11.93;8.57;;;;;;;18.17;56.39;97539.25;4824865;29;20224;-93
2022/04/29 09:59:55;;;;;;;12.17;8.90;;;;;;;18.18;56.62;97532.22;4797720;29;20215;-92
2022/04/29 10:02:24;;;;;;;14.57;8.00;;;;;;;18.06;57.72;97533.03;4796728;29;20245;-92
2022/04/29 10:05:01;;;;;;;14.90;9.00;;;;;;;18.12;57.76;97527.38;4824343;29;20201;-92
2022/04/29 10:07:32;;;;;;;15.17;10.03;;;;;;;17.49;57.29;97417.28;4803533;29;20215;-92
2022/04/29 10:10:05;;;;;;;16.33;10.47;;;;;;;18.11;57.58;97533.59;4814908;29;20244;-92
2022/04/29 10:12:33;;;;;;;13.13;8.90;;;;;;;18.03;58.23;97520.16;4796883;29;20204;-92
2022/04/29 10:15:26;;;;;;;14.37;10.13;;;;;;;17.87;58.40;97534.28;4791686;29;20276;-92
2022/04/29 10:21:18;;;;;;;14.70;9.97;;;;;;;17.54;57.19;97488.53;4825356;29;20208;-93
2022/04/29 10:23:55;;;;;;;21.60;12.77;;;;;;;17.93;57.87;97540.06;4823431;29;20291;-91
2022/04/29 10:26:24;;;;;;;15.30;10.17;;;;;;;17.82;58.82;97511.97;4810624;29;20240;-93
2022/04/29 10:28:52;;;;;;;14.50;10.27;;;;;;;17.82;58.68;97494.47;4794467;29;20215;-93
2022/04/29 10:31:37;;;;;;;10.37;8.60;;;;;;;17.63;58.32;97457.34;4824251;29;20236;-91
2022/04/29 10:34:29;;;;;;;15.83;10.47;;;;;;;18.00;58.00;97549.19;4795127;29;20290;-93
2022/04/29 10:37:12;;;;;;;11.03;8.47;;;;;;;17.48;56.52;97508.06;4809091;29;20695;-90
2022/04/29 10:39:42;;;;;;;11.77;8.47;;;;;;;17.31;58.44;97537.13;4824320;29;20231;-93
2022/04/29 10:42:11;;;;;;;12.27;8.93;;;;;;;17.04;58.30;97489.19;4810137;29;20213;-94
2022/04/29 10:45:01;;;;;;;11.83;9.47;;;;;;;17.35;58.44;97551.69;4809359;29;20234;-92
2022/04/29 10:47:38;;;;;;;12.77;9.07;;;;;;;17.03;58.40;97493.59;4812689;29;20199;-94
2022/04/29 10:50:37;;;;;;;11.40;8.73;;;;;;;17.15;58.97;97535.59;4827243;29;20227;-92
2022/04/29 10:53:37;;;;;;;11.97;8.73;;;;;;;16.85;58.70;97486.06;4831779;29;20192;-91
2022/04/29 10:56:31;;;;;;;12.10;8.53;;;;;;;17.35;58.12;97533.38;4823594;29;20230;-91
2022/04/29 10:59:06;;;;;;;10.63;8.10;;;;;;;17.37;58.25;97535.91;4815071;29;20746;-91
2022/04/29 11:01:37;;;;;;;12.17;8.00;;;;;;;17.51;58.21;97526.25;4811832;29;20199;-93
2022/04/29 11:04:10;;;;;;;10.87;8.50;;;;;;;17.79;57.92;97527.88;4796536;29;20241;-91
2022/04/29 11:06:51;;;;;;;10.10;7.97;;;;;;;17.84;57.07;97523.19;4823679;29;20205;-93
2022/04/29 11:09:35;;;;;;;10.70;7.83;;;;;;;17.59;56.63;97516.13;4810599;29;20258;-91
2022/04/29 11:12:03;;;;;;;10.97;8.10;;;;;;;17.93;55.90;97537.44;4808447;29;20288;-92
2022/04/29 11:15:10;;;;;;;8.80;7.53;;;;;;;17.81;56.22;97479.66;4811082;29;20248;-91
2022/04/29 11:18:15;;;;;;;9.40;7.63;;;;;;;17.99;55.47;97505.59;4825252;29;20225;-92
2022/04/29 11:20:46;;;;;;;11.80;8.87;;;;;;;17.47;56.06;97392.97;4837539;29;20209;-93
2022/04/29 11:26:10;;;;;;;9.97;7.80;;;;;;;17.87;54.42;97455.66;4825134;29;20204;-92
2022/04/29 11:28:51;;;;;;;10.23;8.60;;;;;;;17.47;55.86;97440.94;4824363;29;20734;-92
2022/04/29 11:31:35;;;;;;;10.03;7.37;;;;;;;18.06;55.66;97522.56;4831584;29;20231;-92
2022/04/29 11:34:08;;;;;;;8.87;6.93;;;;;;;17.62;55.55;97492.31;4841214;29;20202;-91
2022/04/29 11:36:35;;;;;;;9.83;7.30;;;;;;;17.61;55.56;97492.44;4824889;29;20262;-90
2022/04/29 11:39:24;;;;;;;16.43;8.77;;;;;;;17.69;55.75;97513.72;4793566;29;20258;-92
2022/04/29 11:41:58;;;;;;;8.93;6.60;;;;;;;17.10;55.43;97426.81;4808173;29;20273;-92
2022/04/29 11:44:36;;;;;;;9.10;7.27;;;;;;;17.67;55.99;97510.34;4810240;29;20212;-92
2022/04/29 11:47:04;;;;;;;8.57;7.07;;;;;;;17.34;54.55;97426.97;4808184;29;20219;-92
2022/04/29 11:49:34;;;;;;;10.97;6.83;;;;;;;17.47;55.15;97477.63;4810748;29;20222;-91
2022/04/29 11:52:30;;;;;;;9.07;7.40;;;;;;;17.07;55.72;97373.84;4809805;29;20790;-94
2022/04/29 11:55:17;;;;;;;9.30;7.73;;;;;;;17.48;55.02;97436.53;4781255;29;20705;-91
2022/04/29 11:57:49;;;;;;;9.37;6.47;;;;;;;17.81;54.49;97482.28;4793772;29;20340;-92
2022/04/29 12:00:25;;;;;;;9.57;7.10;;;;;;;17.48;55.01;97429.50;4793816;29;20233;-92
2022/04/29 12:02:54;;;;;;;8.47;6.97;;;;;;;17.64;55.04;97464.25;4794491;29;20231;-93
2022/04/29 12:05:27;;;;;;;11.07;7.43;;;;;;;17.20;55.64;97427.06;4795034;29;20199;-93
2022/04/29 12:08:00;;;;;;;9.40;6.60;;;;;;;17.62;55.33;97497.56;4824238;29;20206;-92
2022/04/29 12:10:56;;;;;;;8.47;7.33;;;;;;;17.71;55.46;97486.47;4810603;29;20239;-92
2022/04/29 12:13:24;;;;;;;8.93;6.90;;;;;;;17.64;55.22;97459.00;4793518;29;20198;-92
2022/04/29 12:15:54;;;;;;;10.33;7.47;;;;;;;17.79;55.54;97484.19;4795531;29;20211;-92
2022/04/29 12:18:40;;;;;;;11.67;7.50;;;;;;;17.63;56.35;97491.41;4822649;29;20206;-92
2022/04/29 12:21:09;;;;;;;9.37;7.73;;;;;;;17.50;56.25;97487.91;4824148;29;20207;-93
2022/04/29 12:23:39;;;;;;;10.77;7.57;;;;;;;17.21;56.14;97444.44;4842824;29;20282;-92
2022/04/29 12:26:07;;;;;;;9.40;7.20;;;;;;;17.49;56.14;97472.25;4810145;29;20204;-92
2022/04/29 12:28:37;;;;;;;9.53;7.70;;;;;;;17.54;56.13;97473.66;4810063;29;20199;-92
2022/04/29 12:37:09;;;;;;;9.30;7.80;;;;;;;17.83;56.29;97467.31;4824809;29;20308;-92